Aviation Digital Data Service (ADDS)

Output produced by METARs form (2107 UTC 24 March 2019)
found at http://www.aviationweather.gov/metar/data/
 
ENAT 242050Z 36007KT 9999 -SN SCT020 BKN027 M01/M04 Q0997 RMK WIND 700FT 36013KT
TAF ENAT 242000Z 2421/2424 33012KT 9999 FEW015TCU 
     TEMPO 2421/2424 33020G30KT 2000 SHSN VV008
       
ENAN 242050Z 05016KT 9999 FEW007 SCT044 BKN090 M00/M02 Q1001
TAF AMD ENAN 2420/2518 33018KT 9999 -SHRASN FEW008 BKN020 
     TEMPO 2420/2518 1500 SHSNRAGS BKN008 SCT014CB 
     TEMPO 2420/2422 04020KT 
     TEMPO 2423/2504 30008KT
       
ENML 242050Z 02011KT 9999 SHRA VV019 03/02 Q1006
TAF ENML 241700Z 2418/2423 36005KT 9999 -SHRA FEW015TCU BKN030 
     TEMPO 2418/2423 4000 SHRASN VV010 
     TEMPO 2418/2423 09010KT BKN012CB 
     PROB30 
     TEMPO 2418/2423 TSGS
       
ENNA 242050Z 35016KT 9999 BKN019 M01/M04 Q0996 RMK WIND 1800FT 33025KT
ENNA 2418/2518 30009KT 9999 FEW015TCU 
     TEMPO 2418/2424 33020G35KT 4000 -SHSN VV012
       
ENDU 242028Z 31005KT 270V340 7000 VCSH FEW005 SCT015 BKN025 M01/M02 Q0999 RESHSN RMK WIND 1100FT 33015KT WIND 2200FT 36023KT
TAF AMD ENDU 2419/2518 29008KT 8000 -SHSN FEW010 BKN020 
     TEMPO 2419/2421 1200 SHSN VV008 
     TEMPO 2505/2518 2000 -SHSN VV010
       
ENBS 242050Z 34027KT 4000 -SHSN SCT013 BKN021 M02/M03 Q0990
ENBR 242050Z VRB02KT 9999 VCSH FEW005 SCT015CB BKN020 02/01 Q1006 RMK WIND 1200FT 27011KT
TAF COR ENBR 2418/2518 VRB05KT 9999 -SHRA FEW020TCU BKN030 
     TEMPO 2418/2502 3000 SHSNRA VV010 
     PROB30 2502/2508 BKN007 
     TEMPO 2418/2502 BKN012CB 
     PROB30 
     TEMPO 2418/2424 TSGS 
     BECMG 2500/2503 35012KT
       
ENBO 242050Z 28014KT 9999 FEW012 SCT025 01/M01 Q1003 TEMPO 2000 SHSNRAGS BKN012CB
ENBO 2418/2518 32015KT 9999 -SHRA FEW015TCU SCT030 
     TEMPO 2418/2513 33020G30KT 1500 SHSNRAGS BKN012CB 
     BECMG 2511/2513 08008KT
       
ENBL 242050Z 30003KT 260V340 9999 FEW/// SCT020 BKN055 00/M00 Q1005
ENBN 242050Z 36012KT 310V030 9999 VCSH FEW014 SCT036TCU 01/M02 Q1007
TAF AMD ENBN 241518Z 2415/2420 27008KT 9999 FEW015 
     TEMPO 2415/2420 30015G25KT 1000 SHSNGS VV007 
     TEMPO 2415/2420 SCT012CB
       
ENEV 242050Z VRB02KT 7000 -SHSN FEW010 SCT020 BKN030 M01/M02 Q1000 RMK WIND 1400FT 27011KT
TAF ENEV 241700Z 2418/2422 26008KT 9999 FEW015 BKN030 
     TEMPO 2418/2422 32010KT 1000 SHSN VV008 
     TEMPO 2418/2422 FEW012CB
       
ENFL 242050Z AUTO 08007KT //// R07///// // OVC014/// 03/02 Q1006
TAF ENFL 241700Z 2418/2421 15015KT 9999 -SHRASN FEW012TCU BKN020 
     TEMPO 2418/2421 2000 SHSNRA VV010 
     TEMPO 2418/2421 09010KT BKN012CB 
     PROB30 
     TEMPO 2418/2421 TSGS
       
ENHK 242050Z 02012KT 340040 9999 -SHNSGS FEW020CB SCT023 BKN038 M01/M06 Q0999
ENHD 242050Z 29010KT 9999 FEW030 SCT042 04/02 Q1008
TAF ENHD 241700Z 2418/2423 27015KT 9999 -SHRA FEW015TCU SCT030 
     TEMPO 2418/2423 SHRA BKN014CB 
     BECMG 2418/2420 33015KT
       
ENKR 242050Z 30008KT 4400 -SN VV018 M02/M04 Q0991 RMK WIND 731FT 27013KT
TAF ENKR 242000Z 2421/2506 24008KT 9999 FEW020 
     TEMPO 2421/2503 1200 SHSN VV008 
     BECMG 2422/2424 33012KT
       
ENMS 242050Z VRB04KT 3000 SHSN VV014 M01/M04 Q1006 RMK WIND 412FT VRB03KT
ENCN 242050Z 23005KT 210V270 9999 FEW016 BKN110 04/03 Q1007
TAF ENCN 241700Z 2418/2423 23012KT 9999 -SHRA FEW015TCU BKN030 
     TEMPO 2418/2422 25015G25KT 4000 SHRAGS BKN012 SCT015CB 
     BECMG 2420/2422 29008KT
       
ENKB 242050Z 08005KT 040V130 9999 VCSH FEW003 SCT006 BKN010 00/M00 Q1007 RMK WIND 745FT 05015KT
TAF ENKB 241700Z 2418/2422 VRB05KT 9999 -SHRASN FEW020TCU BKN030 
     TEMPO 2418/2422 2000 SHSNRA VV009 
     TEMPO 2418/2422 09010KT BKN012CB 
     PROB30 
     TEMPO 2418/2422 TSGS
       
ENNO 241750Z VRB02KT 9999 BKN060 05/M02 Q1007
TAF ENNO 241400Z 2415/2418 VRB07KT 9999 FEW040 SCT050 
     PROB40 
     TEMPO 2417/2418 SCT040CB
       
ENOL 242050Z 07004KT 9999 FEW010 BKN050 M00/M01 Q1008 NOSIG
ENOL 2418/2518 07007KT 9999 BKN040 
     TEMPO 2418/2420 2000 -SN VV006 
     BECMG 2504/2507 30015KT 
     BECMG 2511/2513 28025KT 
     TEMPO 2515/2518 34030G40KT 4000 SHRASN BKN012CB
       
ENGM 242050Z 20005KT CAVOK 01/M01 Q1005 NOSIG
ENGM 2418/2518 20005KT CAVOK 
     PROB30 2423/2504 0800 FZFG VV002 
     BECMG 2503/2505 36010KT 
     TEMPO 2507/2511 01015G25KT
       
ENRO 242050Z AUTO 30006KT 5000NDV -SN VV017 M01/M01 Q1002
TAF COR ENRO 241100Z 2413/2419 24012KT 9999 SCT030 
     TEMPO 2414/2419 4000 -SHSN BKN015 SCT020CB
       
ENRY 242020Z 19008KT CAVOK 05/02 Q1007
ENRY 2418/2518 19007KT 9999 FEW030 SCT070 
     PROB40 2423/2505 0500 FZFG VV001 
     BECMG 2505/2507 01012KT 
     TEMPO 2507/2511 02015G25KT
       
ENSO 241920Z 32006KT 260V350 9999 -SHRA FEW010 SCT015TCU BKN035 03/02 Q1007
TAF AMD ENSO 241706Z 2417/2419 VRB05KT 9999 BKN008 
     BECMG 2417/2419 FEW010 BKN020 
     TEMPO 2417/2419 27012KT SHRA BKN014CB 
     PROB30 
     TEMPO 2417/2419 3000 TSGS
       
ENSG 241950Z VRB01KT 9999 VCSH FEW025 BKN040 00/00 Q1003 RMK WIND 3806FT 19009KT
ENSR 241850Z 29011KT 250V320 9999 -SHSNRA FEW010 SCT023 BKN035 01/M03 Q0996 WIND 1119FT 29018KT
ENZV 242050Z 31005KT 9999 VCSH SCT017 SCT035 03/01 Q1008
ENZV 2418/2518 29008KT 9999 -SHRA FEW020TCU SCT040 
     BECMG 2420/2422 35012KT 
     TEMPO 2418/2422 SHRA BKN014CB 
     TEMPO 2422/2506 3000 SHSNRA SCT007 BKN012CB 
     TEMPO 2510/2516 35018G28KT
       
ENST 242020Z 04004KT 350V120 9999 VCSH FEW008 FEW016TCU SCT028 M01/M03 Q1006 RMK WIND 300FT 02005KT
ENSS 242020Z 34023KT 9999 FEW007 BKN015 01/00 Q0989 RMK WIND 500FT 34028KT
ENTO 242050Z 21008KT CAVOK 05/02 Q1006 NOSIG
ENTO 2418/2518 23010KT 9999 FEW030 SCT070 
     PROB30 
     TEMPO 2420/2423 4000 -SHRASN FEW015CB BKN020 
     BECMG 2422/2424 30007KT 
     PROB30 2423/2502 0800 FZFG VV002 
     BECMG 2502/2504 36012KT 
     TEMPO 2506/2511 01015G25KT
       
ENTC 242050Z 36015KT 9999 VCSH FEW011 SCT027 BKN039 M00/M06 Q1000 NOSIG RMK WIND 2600FT 01029G40KT
TAF AMD ENTC 2418/2518 28008KT 9999 FEW015TCU SCT040 
     TEMPO 2418/2424 02010KT 
     PROB40 
     TEMPO 2418/2424 30015G25KT 1000 SHSN VV007 
     TEMPO 2424/2518 30015G25KT 1000 SHSNGS VV007 
     TEMPO 2500/2509 21012KT
       
ENVA 242050Z 00000KT 1000 R09/P2000N R27/0750D FZFG VV001 M00/M01 Q1007 RMK WIND 670FT 34004KT
AMD ENVA 2419/2518 VRB05KT 2000 BR BKN002 
     BECMG 2419/2421 9999 FEW020 SCT040 
     PROB40 2419/2506 0500 FZFG VV002 
     BECMG 2509/2512 27015KT 
     TEMPO 2515/2518 33015KT 2000 SHSNRA VV008
       
ENAL 242050Z 00000KT 9999 BKN028 04/02 Q1006
TAF ENAL 241700Z 2418/2423 17008KT 9999 -SHRA FEW012TCU BKN020 
     TEMPO 2418/2423 4000 SHRASN VV010 
     TEMPO 2418/2423 BKN012CB 
     PROB30 
     TEMPO 2418/2423 TSGS